Time;durP1;ratioP1;P1;durP2;ratioP2;P2;SDS_P1;SDS_P2;PMS_P1;PMS_P2;Temp;Humidity;BMP_temperature;BMP_pressure;BME280_temperature;BME280_humidity;BME280_pressure;Samples;Min_cycle;Max_cycle;Signal;HPM_P1;HPM_P2
2022/06/30 00:00:38;;;;;;;8.15;5.25;;;18.10;99.90;;;;;;4977042;28;20058;-62
2022/06/30 00:03:04;;;;;;;8.38;6.10;;;18.40;99.90;;;;;;5000097;28;20513;-62
2022/06/30 00:05:29;;;;;;;7.55;5.90;;;18.30;99.90;;;;;;4970398;28;20082;-61
2022/06/30 00:07:55;;;;;;;7.93;6.35;;;18.30;99.90;;;;;;5005217;28;20046;-62
2022/06/30 00:10:22;;;;;;;7.72;4.97;;;18.10;99.90;;;;;;4974173;28;20041;-62
2022/06/30 00:12:47;;;;;;;7.25;4.95;;;18.30;99.90;;;;;;4974072;28;20039;-62
2022/06/30 00:15:13;;;;;;;6.07;4.70;;;18.20;99.90;;;;;;4983219;28;20038;-61
2022/06/30 00:17:39;;;;;;;7.35;5.05;;;19.40;99.90;;;;;;5005011;28;20501;-62
2022/06/30 00:20:05;;;;;;;5.82;5.22;;;18.20;99.90;;;;;;4989336;28;20038;-62
2022/06/30 00:22:30;;;;;;;5.18;4.57;;;18.10;99.90;;;;;;4984335;28;20034;-62
2022/06/30 00:24:56;;;;;;;6.85;5.32;;;18.20;99.90;;;;;;4962337;28;20046;-62
2022/06/30 00:27:21;;;;;;;5.72;4.75;;;18.00;99.90;;;;;;4980267;28;20137;-62
2022/06/30 00:29:47;;;;;;;6.95;5.07;;;18.60;99.90;;;;;;4972975;28;20034;-61
2022/06/30 00:32:12;;;;;;;6.63;5.72;;;18.50;99.90;;;;;;4973077;28;20085;-61
2022/06/30 00:34:38;;;;;;;11.55;5.53;;;18.70;99.90;;;;;;5004331;28;20065;-62
2022/06/30 00:37:04;;;;;;;6.65;5.00;;;18.70;99.90;;;;;;4979843;28;20034;-61
2022/06/30 00:39:30;;;;;;;6.88;4.78;;;18.80;99.90;;;;;;4977100;28;20047;-61
2022/06/30 00:41:56;;;;;;;5.38;4.88;;;20.00;99.90;;;;;;4973301;28;20065;-62
2022/06/30 00:44:22;;;;;;;5.90;4.88;;;20.40;99.90;;;;;;4973211;28;20039;-61
2022/06/30 00:46:48;;;;;;;6.90;4.68;;;18.70;99.90;;;;;;4982277;28;20072;-62
2022/06/30 00:49:16;;;;;;;4.90;4.40;;;18.80;99.90;;;;;;4983185;28;20046;-62
2022/06/30 00:51:42;;;;;;;5.35;4.38;;;19.50;99.90;;;;;;4979553;28;20406;-61
2022/06/30 00:54:10;;;;;;;4.25;3.67;;;18.60;99.90;;;;;;4982498;28;20034;-61
2022/06/30 00:56:40;;;;;;;4.93;4.10;;;18.90;99.90;;;;;;5001316;28;20077;-62
2022/06/30 00:59:07;;;;;;;4.88;4.18;;;18.70;99.90;;;;;;4994561;28;20045;-61
2022/06/30 01:01:33;;;;;;;5.65;4.10;;;18.90;99.90;;;;;;4994606;28;20504;-61
2022/06/30 01:04:00;;;;;;;5.32;4.22;;;19.00;99.90;;;;;;5016090;28;20058;-60
2022/06/30 01:06:27;;;;;;;5.20;3.55;;;18.80;99.90;;;;;;5051557;28;20040;-61
2022/06/30 01:08:53;;;;;;;6.85;3.72;;;18.60;99.90;;;;;;5019976;28;20080;-60
2022/06/30 01:14:03;;;;;;;5.20;3.88;;;18.70;99.90;;;;;;5043220;28;20491;-61
2022/06/30 01:16:29;;;;;;;6.03;3.55;;;18.90;99.90;;;;;;5004595;28;20081;-61
2022/06/30 01:18:55;;;;;;;7.70;4.28;;;19.00;99.90;;;;;;5022179;28;20077;-60
2022/06/30 01:21:20;;;;;;;4.85;3.83;;;18.90;99.90;;;;;;5021885;28;20079;-61
2022/06/30 01:23:46;;;;;;;7.15;3.72;;;18.80;99.90;;;;;;5054842;28;20483;-60
2022/06/30 01:26:12;;;;;;;5.00;4.18;;;19.00;99.90;;;;;;5026498;28;20041;-61
2022/06/30 01:28:38;;;;;;;4.88;3.53;;;20.20;99.90;;;;;;5019210;28;20041;-61
2022/06/30 01:31:03;;;;;;;4.85;4.28;;;18.90;99.90;;;;;;5016644;28;20038;-61
2022/06/30 01:33:29;;;;;;;6.32;4.32;;;19.00;99.90;;;;;;5023305;28;20113;-61
2022/06/30 01:35:56;;;;;;;4.68;4.05;;;18.70;99.90;;;;;;5033581;28;20037;-60
2022/06/30 01:38:22;;;;;;;6.32;4.53;;;18.80;99.90;;;;;;5025942;28;20476;-61
2022/06/30 01:40:48;;;;;;;5.70;5.10;;;19.00;99.90;;;;;;5014588;28;20064;-61
2022/06/30 01:43:14;;;;;;;8.35;4.57;;;18.80;99.90;;;;;;4994521;28;20042;-60
2022/06/30 01:45:41;;;;;;;8.10;4.30;;;18.90;99.90;;;;;;5002294;28;20409;-61
2022/06/30 01:48:08;;;;;;;12.68;4.85;;;18.80;99.90;;;;;;5018580;28;20050;-61
2022/06/30 01:50:34;;;;;;;6.68;4.45;;;19.00;99.90;;;;;;5024800;28;20030;-61
2022/06/30 01:53:00;;;;;;;6.80;4.93;;;18.60;99.90;;;;;;5042345;28;20037;-61
2022/06/30 01:55:27;;;;;;;6.13;4.60;;;18.50;99.90;;;;;;5025692;28;20538;-61
2022/06/30 01:57:53;;;;;;;5.32;4.15;;;18.80;99.90;;;;;;5010559;28;20077;-61
2022/06/30 02:00:26;;;;;;;5.70;4.97;;;18.80;99.90;;;;;;5028317;28;20135;-61
2022/06/30 02:02:53;;;;;;;5.68;4.30;;;18.80;99.90;;;;;;5013819;28;20056;-61
2022/06/30 02:05:19;;;;;;;5.55;4.55;;;20.00;99.90;;;;;;5026294;28;20040;-60
2022/06/30 02:07:45;;;;;;;8.68;4.88;;;18.70;99.90;;;;;;5028928;28;20033;-60
2022/06/30 02:10:18;;;;;;;5.50;4.22;;;18.70;99.90;;;;;;5003970;28;20046;-61
2022/06/30 02:12:47;;;;;;;5.38;4.15;;;18.70;99.90;;;;;;5012836;28;20033;-61
2022/06/30 02:15:18;;;;;;;7.30;4.60;;;18.70;99.90;;;;;;5013889;28;20036;-61
2022/06/30 02:17:45;;;;;;;6.30;4.28;;;18.60;99.90;;;;;;5017477;28;20040;-60
2022/06/30 02:20:12;;;;;;;6.43;4.13;;;19.60;99.90;;;;;;5053801;28;20033;-61
2022/06/30 02:22:41;;;;;;;8.13;4.40;;;18.60;99.90;;;;;;5019330;28;20036;-60
2022/06/30 02:25:08;;;;;;;8.73;4.68;;;18.50;99.90;;;;;;5023103;28;20120;-60
2022/06/30 02:27:34;;;;;;;7.20;4.70;;;18.50;99.90;;;;;;5028510;28;20033;-61
2022/06/30 02:30:00;;;;;;;8.45;4.30;;;18.40;99.90;;;;;;5010740;28;20043;-61
2022/06/30 02:32:26;;;;;;;7.93;4.55;;;18.70;99.90;;;;;;5020758;28;20029;-60
2022/06/30 02:34:52;;;;;;;6.60;4.50;;;18.50;99.90;;;;;;5052465;28;20057;-61
2022/06/30 02:37:18;;;;;;;6.75;4.93;;;18.60;99.90;;;;;;5035330;28;20041;-61
2022/06/30 02:39:44;;;;;;;5.75;4.75;;;20.40;99.90;;;;;;5018726;28;20042;-60
2022/06/30 02:42:10;;;;;;;7.35;4.75;;;20.10;99.90;;;;;;5013524;28;20053;-61
2022/06/30 02:44:36;;;;;;;5.50;4.28;;;18.20;99.90;;;;;;5044077;28;20483;-60
2022/06/30 02:47:02;;;;;;;5.10;3.88;;;20.30;99.90;;;;;;5044129;28;20032;-60
2022/06/30 02:49:28;;;;;;;5.25;4.05;;;18.10;99.90;;;;;;5008265;28;20088;-61
2022/06/30 02:51:54;;;;;;;6.20;4.35;;;18.30;99.90;;;;;;5038579;28;20044;-60
2022/06/30 02:54:20;;;;;;;6.07;4.20;;;18.40;99.90;;;;;;5029407;28;20038;-60
2022/06/30 02:56:47;;;;;;;7.25;4.45;;;19.00;99.90;;;;;;5030518;28;20035;-61
2022/06/30 02:59:13;;;;;;;5.75;5.13;;;18.80;99.90;;;;;;5042963;28;20095;-61
2022/06/30 03:01:38;;;;;;;10.95;5.15;;;18.00;99.90;;;;;;5017782;28;20034;-61
2022/06/30 03:04:04;;;;;;;6.35;4.65;;;18.10;99.90;;;;;;5022246;28;20120;-60
2022/06/30 03:06:31;;;;;;;7.40;4.85;;;18.00;99.90;;;;;;5026260;28;20049;-60
2022/06/30 03:08:57;;;;;;;5.85;4.53;;;18.00;99.90;;;;;;5023084;28;20503;-59
2022/06/30 03:11:23;;;;;;;9.40;4.43;;;18.10;99.90;;;;;;5012965;28;20060;-60
2022/06/30 03:13:49;;;;;;;4.93;4.38;;;17.90;99.90;;;;;;5022847;28;20038;-60
2022/06/30 03:16:14;;;;;;;6.35;5.68;;;18.00;99.90;;;;;;4995390;28;20365;-60
2022/06/30 03:18:43;;;;;;;5.43;4.65;;;18.00;99.90;;;;;;4996691;28;20475;-63
2022/06/30 03:21:08;;;;;;;8.63;4.35;;;17.90;99.90;;;;;;5019987;28;20048;-60
2022/06/30 03:23:34;;;;;;;7.07;4.90;;;17.80;99.90;;;;;;5021785;28;20037;-61
2022/06/30 03:26:00;;;;;;;6.00;4.30;;;17.70;99.90;;;;;;5045690;28;20048;-61
2022/06/30 03:28:26;;;;;;;5.03;4.22;;;18.00;99.90;;;;;;5009576;28;20120;-60
2022/06/30 03:30:52;;;;;;;5.25;4.68;;;17.80;99.90;;;;;;5027521;28;20184;-61
2022/06/30 03:33:19;;;;;;;4.95;3.72;;;17.70;99.90;;;;;;4988377;28;20041;-60
2022/06/30 03:35:45;;;;;;;5.65;4.05;;;17.80;99.90;;;;;;5027088;28;20040;-61
2022/06/30 03:38:11;;;;;;;5.47;4.60;;;17.90;99.90;;;;;;5027987;28;20118;-61
2022/06/30 03:40:37;;;;;;;7.25;4.45;;;18.00;99.90;;;;;;5007141;28;20397;-60
2022/06/30 03:43:03;;;;;;;5.60;4.45;;;17.90;99.90;;;;;;5028628;28;20073;-59
2022/06/30 03:45:29;;;;;;;5.32;4.75;;;18.00;99.90;;;;;;5024918;28;20123;-60
2022/06/30 03:47:55;;;;;;;7.63;5.57;;;17.90;99.90;;;;;;5024690;28;20492;-60
2022/06/30 03:50:20;;;;;;;5.25;4.45;;;17.40;99.90;;;;;;5032194;28;20051;-60
2022/06/30 03:52:46;;;;;;;5.50;4.68;;;17.80;99.90;;;;;;5034336;28;20040;-60
2022/06/30 03:55:12;;;;;;;8.48;4.40;;;17.90;99.90;;;;;;5036511;28;20481;-60
2022/06/30 03:57:38;;;;;;;6.72;4.55;;;18.00;99.90;;;;;;5005552;28;20471;-60
2022/06/30 04:00:05;;;;;;;6.82;5.03;;;18.00;99.90;;;;;;5020128;28;20048;-59
2022/06/30 04:02:31;;;;;;;6.15;4.95;;;18.00;99.90;;;;;;5033867;28;20522;-61
2022/06/30 04:04:57;;;;;;;6.57;4.72;;;19.20;99.90;;;;;;5006640;28;20042;-61
2022/06/30 04:07:23;;;;;;;6.57;5.25;;;19.30;99.90;;;;;;4993461;28;20128;-61
2022/06/30 04:09:48;;;;;;;7.07;4.43;;;17.90;99.90;;;;;;4999670;28;20034;-60
2022/06/30 04:12:14;;;;;;;6.32;4.80;;;17.90;99.90;;;;;;5006299;28;20392;-61
2022/06/30 04:14:40;;;;;;;6.93;5.30;;;19.30;99.90;;;;;;5028527;28;20041;-60
2022/06/30 04:17:05;;;;;;;7.55;4.97;;;18.00;99.90;;;;;;5007197;28;20034;-61
2022/06/30 04:19:31;;;;;;;6.30;5.38;;;18.00;99.90;;;;;;5028472;28;20073;-59
2022/06/30 04:21:57;;;;;;;9.93;4.85;;;17.90;99.90;;;;;;5024586;28;20116;-62
2022/06/30 04:24:22;;;;;;;6.07;4.75;;;18.10;99.90;;;;;;5026371;28;20041;-61
2022/06/30 04:26:48;;;;;;;6.72;4.70;;;18.10;99.90;;;;;;5005989;28;20042;-61
2022/06/30 04:29:13;;;;;;;5.25;4.75;;;18.00;99.90;;;;;;5003982;28;20045;-60
2022/06/30 04:34:23;;;;;;;9.90;5.38;;;18.20;99.90;;;;;;5014880;28;20068;-61
2022/06/30 04:36:49;;;;;;;6.78;4.80;;;17.90;99.90;;;;;;5013556;28;20094;-61
2022/06/30 04:39:15;;;;;;;7.28;4.85;;;18.10;99.90;;;;;;5018336;28;20148;-61
2022/06/30 04:41:41;;;;;;;5.40;4.70;;;18.10;99.90;;;;;;5015668;28;20472;-60
2022/06/30 04:44:06;;;;;;;9.90;5.15;;;18.30;99.90;;;;;;5013542;28;20450;-61
2022/06/30 04:46:32;;;;;;;7.80;5.07;;;18.30;99.90;;;;;;5019986;28;20045;-61
2022/06/30 04:48:58;;;;;;;7.22;5.00;;;18.50;99.90;;;;;;5015938;28;20463;-61
2022/06/30 04:51:24;;;;;;;6.15;4.70;;;18.30;99.90;;;;;;4983841;28;20545;-61
2022/06/30 04:53:50;;;;;;;6.28;4.43;;;18.50;99.90;;;;;;5022764;28;20045;-61
2022/06/30 04:56:17;;;;;;;6.88;4.78;;;18.60;99.90;;;;;;5021748;28;20042;-60
2022/06/30 04:58:44;;;;;;;6.22;4.93;;;18.50;99.90;;;;;;5024977;28;20045;-61
2022/06/30 05:01:09;;;;;;;5.88;3.95;;;18.80;99.90;;;;;;5036989;28;20045;-61
2022/06/30 05:03:35;;;;;;;5.45;4.40;;;19.00;99.90;;;;;;5026942;28;20422;-61
2022/06/30 05:06:01;;;;;;;6.63;4.43;;;18.90;99.90;;;;;;5027412;28;20388;-60
2022/06/30 05:08:27;;;;;;;8.55;4.50;;;19.10;99.90;;;;;;5024725;28;20046;-60
2022/06/30 05:10:53;;;;;;;6.90;4.38;;;21.20;99.90;;;;;;5027488;28;20434;-62
2022/06/30 05:13:18;;;;;;;5.57;4.18;;;20.10;99.90;;;;;;5020203;28;20038;-60
2022/06/30 05:15:45;;;;;;;9.70;4.53;;;20.00;99.90;;;;;;5013626;28;20041;-61
2022/06/30 05:18:11;;;;;;;6.43;4.22;;;20.20;99.90;;;;;;5008882;28;20400;-61
2022/06/30 05:20:37;;;;;;;5.55;4.55;;;20.10;99.90;;;;;;5007864;28;20053;-61
2022/06/30 05:23:02;;;;;;;7.10;5.05;;;20.20;99.90;;;;;;5027931;28;20041;-61
2022/06/30 05:28:13;;;;;;;7.75;4.00;;;20.10;99.90;;;;;;5009857;28;20053;-61
2022/06/30 05:30:39;;;;;;;5.18;4.15;;;20.10;99.90;;;;;;4995178;28;20037;-62
2022/06/30 05:33:05;;;;;;;6.72;4.35;;;20.10;99.90;;;;;;4995201;28;20079;-62
2022/06/30 05:35:30;;;;;;;5.40;3.90;;;20.00;99.90;;;;;;5006942;28;20069;-62
2022/06/30 05:37:56;;;;;;;3.92;3.53;;;20.10;99.90;;;;;;4996330;28;20050;-61
2022/06/30 05:40:22;;;;;;;6.30;4.30;;;20.40;99.90;;;;;;5010158;28;20041;-62
2022/06/30 05:42:47;;;;;;;7.65;4.20;;;20.20;99.90;;;;;;5023476;28;20398;-62
2022/06/30 05:45:13;;;;;;;6.15;4.30;;;20.40;99.90;;;;;;5028921;28;20039;-63
2022/06/30 05:47:52;;;;;;;5.00;4.13;;;20.80;99.90;;;;;;5035015;28;20399;-62
2022/06/30 05:50:20;;;;;;;5.53;4.13;;;20.80;99.90;;;;;;5010299;28;20038;-62
2022/06/30 05:52:46;;;;;;;4.90;3.80;;;21.10;99.90;;;;;;5025896;28;20041;-62
2022/06/30 05:55:12;;;;;;;7.70;4.55;;;21.10;99.90;;;;;;5027558;28;20045;-62
2022/06/30 05:57:48;;;;;;;5.80;4.50;;;21.30;99.90;;;;;;5030489;28;20034;-62
2022/06/30 06:00:14;;;;;;;6.20;3.88;;;21.50;99.90;;;;;;5040750;28;20495;-62
2022/06/30 06:02:40;;;;;;;8.35;4.88;;;21.30;99.90;;;;;;5015042;28;20046;-62
2022/06/30 06:05:05;;;;;;;6.85;4.65;;;21.50;99.90;;;;;;5016543;28;20068;-62
2022/06/30 06:07:31;;;;;;;7.30;4.35;;;21.80;99.90;;;;;;5020345;28;20034;-62
2022/06/30 06:09:56;;;;;;;5.38;4.68;;;22.20;99.90;;;;;;5017243;28;20045;-62
2022/06/30 06:12:22;;;;;;;6.43;4.35;;;22.30;99.90;;;;;;4999494;28;20038;-63
2022/06/30 06:14:48;;;;;;;7.28;4.68;;;22.20;99.90;;;;;;4996605;28;20399;-63
2022/06/30 06:17:14;;;;;;;5.95;4.35;;;22.30;99.90;;;;;;5017178;28;20060;-63
2022/06/30 06:19:39;;;;;;;4.38;3.95;;;22.30;99.90;;;;;;5028367;28;20124;-63
2022/06/30 06:22:05;;;;;;;7.82;4.47;;;22.60;99.90;;;;;;5011287;28;20193;-63
2022/06/30 06:24:30;;;;;;;9.85;4.30;;;22.50;99.90;;;;;;5004154;28;20081;-63
2022/06/30 06:26:56;;;;;;;7.20;3.75;;;22.40;99.90;;;;;;5019019;28;20054;-63
2022/06/30 06:29:22;;;;;;;5.45;4.32;;;22.60;99.90;;;;;;5015433;28;20042;-63
2022/06/30 06:31:49;;;;;;;6.22;4.80;;;23.00;99.90;;;;;;5017887;28;20041;-63
2022/06/30 06:34:15;;;;;;;5.07;3.97;;;22.90;99.90;;;;;;4999139;28;20037;-63
2022/06/30 06:36:41;;;;;;;8.18;4.75;;;23.20;99.90;;;;;;5013735;28;20042;-63
2022/06/30 06:39:06;;;;;;;10.95;5.60;;;23.50;99.90;;;;;;5023691;28;20098;-63
2022/06/30 06:41:33;;;;;;;6.20;4.50;;;23.40;99.90;;;;;;5003154;28;20052;-63
2022/06/30 06:43:58;;;;;;;6.68;5.30;;;23.50;99.90;;;;;;5000139;28;20046;-63
2022/06/30 06:46:27;;;;;;;6.80;4.90;;;23.30;99.90;;;;;;5012635;28;20057;-63
2022/06/30 06:49:03;;;;;;;6.90;5.13;;;23.00;99.90;;;;;;5024770;28;20049;-63
2022/06/30 06:51:29;;;;;;;6.25;4.78;;;23.10;99.90;;;;;;5022563;28;20099;-63
2022/06/30 06:53:55;;;;;;;7.88;5.63;;;23.10;99.90;;;;;;5000457;28;20042;-63
2022/06/30 06:56:22;;;;;;;6.03;5.30;;;22.70;99.90;;;;;;5020967;28;20046;-63
2022/06/30 06:58:47;;;;;;;7.65;5.40;;;23.10;99.90;;;;;;5023398;28;20041;-63
2022/06/30 07:01:13;;;;;;;9.77;6.32;;;23.00;99.90;;;;;;5022035;28;20048;-63
2022/06/30 07:03:39;;;;;;;6.93;5.13;;;23.10;99.90;;;;;;5019539;28;20053;-63
2022/06/30 07:06:08;;;;;;;7.95;6.22;;;24.40;99.90;;;;;;5032878;28;20041;-63
2022/06/30 07:08:34;;;;;;;9.13;6.40;;;22.80;99.90;;;;;;4995697;28;20045;-63
2022/06/30 07:11:00;;;;;;;9.80;5.78;;;22.80;99.90;;;;;;5028886;28;20103;-63
2022/06/30 07:13:26;;;;;;;9.25;5.78;;;23.00;99.90;;;;;;5025479;28;20496;-63
2022/06/30 07:15:52;;;;;;;7.93;5.40;;;22.80;99.90;;;;;;5009695;28;20041;-63
2022/06/30 07:18:18;;;;;;;7.78;6.35;;;22.90;99.90;;;;;;4995496;28;20042;-63
2022/06/30 07:20:44;;;;;;;11.75;6.97;;;23.10;99.90;;;;;;5020857;28;20037;-63
2022/06/30 07:23:10;;;;;;;7.00;6.20;;;23.20;99.90;;;;;;5032687;28;20045;-63
2022/06/30 07:25:35;;;;;;;10.23;5.88;;;23.10;99.90;;;;;;4999305;28;20046;-63
2022/06/30 07:28:02;;;;;;;8.88;7.28;;;23.20;99.90;;;;;;5035188;28;20077;-63
2022/06/30 07:30:28;;;;;;;8.52;7.63;;;23.30;99.90;;;;;;5009223;28;20033;-63
2022/06/30 07:32:53;;;;;;;10.02;7.28;;;23.20;99.90;;;;;;5012612;28;20041;-63
2022/06/30 07:35:19;;;;;;;9.50;7.80;;;23.10;99.90;;;;;;5011604;28;20045;-63
2022/06/30 07:37:45;;;;;;;9.20;7.90;;;23.30;99.90;;;;;;4995277;28;20034;-63
2022/06/30 07:40:12;;;;;;;7.78;6.32;;;23.20;99.90;;;;;;5012661;28;20038;-63
2022/06/30 07:42:38;;;;;;;8.65;7.75;;;23.30;99.90;;;;;;5012717;28;20513;-63
2022/06/30 07:45:04;;;;;;;8.77;7.63;;;23.30;99.90;;;;;;5012824;28;20069;-63
2022/06/30 07:47:30;;;;;;;8.55;7.70;;;23.30;99.90;;;;;;5016708;28;20038;-63
2022/06/30 07:49:55;;;;;;;10.75;6.97;;;23.50;99.90;;;;;;5012819;28;20065;-62
2022/06/30 07:52:21;;;;;;;10.50;7.25;;;23.80;99.90;;;;;;5012854;28;20088;-63
2022/06/30 07:54:47;;;;;;;9.55;8.27;;;23.80;99.90;;;;;;5012767;28;20040;-62
2022/06/30 07:57:15;;;;;;;9.35;7.47;;;23.90;99.90;;;;;;5015670;28;20072;-63
2022/06/30 07:59:40;;;;;;;8.98;7.03;;;24.30;99.90;;;;;;5031503;28;20037;-63
2022/06/30 08:02:09;;;;;;;9.00;7.47;;;24.30;99.90;;;;;;5013308;28;20058;-63
2022/06/30 08:04:35;;;;;;;8.93;7.60;;;24.10;99.90;;;;;;5005772;28;20049;-63
2022/06/30 08:07:01;;;;;;;8.48;7.63;;;23.90;99.90;;;;;;5014808;28;20400;-62
2022/06/30 08:09:28;;;;;;;11.70;8.88;;;25.50;99.90;;;;;;5012505;28;20050;-62
2022/06/30 08:11:54;;;;;;;11.98;8.73;;;25.00;99.90;;;;;;5042613;28;20044;-63
2022/06/30 08:14:23;;;;;;;10.07;8.30;;;23.80;99.90;;;;;;5036796;28;20419;-62
2022/06/30 08:16:49;;;;;;;11.15;8.63;;;23.80;99.90;;;;;;5023271;28;20052;-63
2022/06/30 08:19:16;;;;;;;9.98;8.32;;;24.20;99.90;;;;;;5044925;28;20053;-63
2022/06/30 08:21:42;;;;;;;12.43;8.35;;;24.10;99.90;;;;;;5040281;28;20379;-63
2022/06/30 08:24:08;;;;;;;13.95;8.05;;;24.20;99.90;;;;;;5002485;28;20045;-62
2022/06/30 08:26:34;;;;;;;11.00;9.13;;;25.20;99.90;;;;;;5016045;28;20044;-63
2022/06/30 08:29:00;;;;;;;12.70;9.27;;;24.20;99.90;;;;;;5026300;28;20071;-62
2022/06/30 08:31:27;;;;;;;10.43;8.88;;;24.30;99.90;;;;;;5032021;28;20502;-63
2022/06/30 08:33:54;;;;;;;11.30;10.02;;;24.30;99.90;;;;;;5009455;28;20498;-63
2022/06/30 08:36:20;;;;;;;12.75;9.90;;;24.20;99.90;;;;;;5021867;28;20038;-62
2022/06/30 08:38:46;;;;;;;12.40;8.95;;;24.50;99.90;;;;;;5034769;28;20048;-63
2022/06/30 08:43:59;;;;;;;11.23;9.45;;;24.40;99.90;;;;;;5027173;28;20041;-62
2022/06/30 08:46:26;;;;;;;11.00;9.82;;;24.70;99.90;;;;;;5012991;28;20061;-62
2022/06/30 08:48:53;;;;;;;10.15;9.15;;;24.60;99.90;;;;;;5027509;28;20037;-62
2022/06/30 08:51:20;;;;;;;10.15;9.15;;;24.60;99.90;;;;;;5012971;28;20137;-62
2022/06/30 08:53:55;;;;;;;11.38;9.70;;;24.80;99.90;;;;;;5022908;28;20108;-63
2022/06/30 08:56:22;;;;;;;12.80;9.15;;;24.70;99.90;;;;;;5023385;28;20042;-63
2022/06/30 08:58:50;;;;;;;9.23;8.25;;;24.60;99.90;;;;;;5012264;28;20045;-62
2022/06/30 09:01:16;;;;;;;12.43;8.70;;;24.70;99.90;;;;;;5017242;28;20056;-62
2022/06/30 09:03:42;;;;;;;12.13;9.48;;;24.70;99.90;;;;;;5012269;28;20054;-61
2022/06/30 09:06:09;;;;;;;11.93;9.27;;;24.70;99.90;;;;;;5020942;28;20047;-61
2022/06/30 09:08:34;;;;;;;10.45;7.63;;;24.90;99.90;;;;;;5015152;28;20046;-62
2022/06/30 09:11:00;;;;;;;14.18;9.27;;;24.80;99.90;;;;;;4997871;28;20034;-62
2022/06/30 09:13:41;;;;;;;9.20;7.85;;;24.80;99.90;;;;;;5015502;28;20033;-62
2022/06/30 09:16:07;;;;;;;11.25;10.05;;;24.90;99.90;;;;;;5029699;28;20041;-62
2022/06/30 09:18:33;;;;;;;11.48;8.32;;;24.80;99.90;;;;;;4999957;28;20151;-64
2022/06/30 09:21:01;;;;;;;10.25;7.65;;;25.00;99.90;;;;;;5014144;28;20042;-62
2022/06/30 09:23:35;;;;;;;11.50;8.45;;;25.10;99.90;;;;;;5009196;28;20057;-62
2022/06/30 09:26:02;;;;;;;10.43;8.02;;;25.30;99.90;;;;;;5015062;28;20037;-62
2022/06/30 09:28:41;;;;;;;10.88;7.75;;;25.30;99.90;;;;;;5017235;28;20049;-62
2022/06/30 09:31:07;;;;;;;13.73;7.28;;;25.30;99.90;;;;;;4997405;28;20109;-61
2022/06/30 09:33:39;;;;;;;8.85;7.20;;;25.40;99.90;;;;;;5015059;28;20433;-62
2022/06/30 09:36:27;;;;;;;11.23;7.13;;;25.40;99.90;;;;;;5010562;28;20404;-61
2022/06/30 09:39:04;;;;;;;8.30;6.07;;;25.50;99.90;;;;;;5012675;28;20046;-62
2022/06/30 09:41:32;;;;;;;11.35;8.93;;;25.70;99.90;;;;;;5014670;28;20562;-62
2022/06/30 09:43:58;;;;;;;12.63;10.43;;;27.00;99.90;;;;;;5017535;28;20034;-62
2022/06/30 09:46:24;;;;;;;12.52;10.70;;;26.00;99.90;;;;;;5018610;28;20213;-63
2022/06/30 09:48:50;;;;;;;14.10;8.73;;;25.90;99.90;;;;;;5014912;28;20030;-63
2022/06/30 09:51:17;;;;;;;10.98;9.45;;;26.30;99.90;;;;;;4997200;28;20037;-62
2022/06/30 09:53:42;;;;;;;11.80;9.20;;;25.90;99.90;;;;;;4997137;28;20491;-62
2022/06/30 09:56:13;;;;;;;12.25;9.15;;;27.50;99.90;;;;;;5014910;28;20057;-62
2022/06/30 09:58:42;;;;;;;13.68;9.40;;;26.30;99.90;;;;;;4996552;28;20077;-62
2022/06/30 10:01:09;;;;;;;11.48;10.25;;;26.20;99.90;;;;;;5013127;28;20045;-62
2022/06/30 10:03:44;;;;;;;12.13;9.77;;;26.40;99.90;;;;;;5034093;28;20053;-62
2022/06/30 10:06:15;;;;;;;14.13;9.32;;;26.40;99.90;;;;;;5032968;28;20045;-62
2022/06/30 10:08:41;;;;;;;16.30;10.18;;;26.20;99.90;;;;;;5033840;28;20121;-62
2022/06/30 10:11:08;;;;;;;9.40;8.40;;;26.10;99.90;;;;;;5033028;28;20112;-62
2022/06/30 10:13:35;;;;;;;13.10;8.52;;;26.50;99.90;;;;;;5034299;28;20029;-62
2022/06/30 10:16:05;;;;;;;16.88;10.80;;;26.50;99.90;;;;;;5032816;28;20041;-62
2022/06/30 10:18:35;;;;;;;14.27;10.13;;;26.30;99.90;;;;;;5032783;28;20059;-62
2022/06/30 10:21:01;;;;;;;12.68;10.15;;;27.60;99.90;;;;;;5028777;28;20030;-61
2022/06/30 10:23:27;;;;;;;11.32;8.65;;;26.90;99.90;;;;;;4996711;28;20033;-63
2022/06/30 10:25:56;;;;;;;11.48;7.80;;;26.50;99.90;;;;;;5011870;28;20034;-62
2022/06/30 10:28:24;;;;;;;14.30;9.68;;;26.90;99.90;;;;;;5013119;28;20041;-61
2022/06/30 10:30:57;;;;;;;12.63;9.60;;;26.80;99.90;;;;;;5007756;28;20046;-62
2022/06/30 10:33:47;;;;;;;21.90;12.38;;;26.90;99.90;;;;;;5006335;28;20045;-62
2022/06/30 10:36:26;;;;;;;14.20;10.50;;;26.90;99.90;;;;;;5002986;28;20038;-63
2022/06/30 10:39:04;;;;;;;12.75;9.80;;;27.00;99.90;;;;;;5013910;28;20073;-63
2022/06/30 10:41:30;;;;;;;20.15;11.80;;;26.90;99.90;;;;;;5022237;28;20048;-63
2022/06/30 10:44:04;;;;;;;17.67;15.32;;;27.10;99.90;;;;;;5013988;28;20030;-62
2022/06/30 10:46:56;;;;;;;21.52;13.25;;;27.00;99.90;;;;;;5000094;28;20499;-62
2022/06/30 10:49:27;;;;;;;17.25;14.75;;;26.90;99.90;;;;;;4995990;28;20042;-63
2022/06/30 10:51:56;;;;;;;21.58;14.48;;;27.10;99.90;;;;;;5025019;28;20045;-63
2022/06/30 10:54:30;;;;;;;19.00;14.63;;;27.30;99.90;;;;;;5012250;28;20041;-63
2022/06/30 10:57:01;;;;;;;16.65;11.40;;;29.10;99.90;;;;;;5010870;28;20100;-63
2022/06/30 10:59:37;;;;;;;11.68;9.50;;;27.50;99.90;;;;;;5006058;28;20334;-63
2022/06/30 11:02:11;;;;;;;11.23;7.07;;;27.60;99.90;;;;;;5014750;28;20125;-62
2022/06/30 11:04:39;;;;;;;9.45;5.97;;;28.60;99.90;;;;;;5015569;28;20045;-63
2022/06/30 11:07:24;;;;;;;7.65;4.85;;;27.30;99.90;;;;;;4994221;28;20041;-63
2022/06/30 11:09:55;;;;;;;10.57;7.03;;;27.50;99.90;;;;;;5017237;28;20049;-63
2022/06/30 11:12:31;;;;;;;9.68;6.65;;;27.10;99.90;;;;;;5015203;28;20045;-63
2022/06/30 11:14:58;;;;;;;8.35;6.45;;;27.30;99.90;;;;;;5018343;28;20611;-63
2022/06/30 11:17:29;;;;;;;9.63;6.75;;;27.10;99.90;;;;;;5010856;28;20484;-63
2022/06/30 11:20:07;;;;;;;6.88;5.30;;;27.70;99.90;;;;;;5014528;28;20041;-63
2022/06/30 11:22:34;;;;;;;11.00;6.38;;;27.30;99.90;;;;;;4994689;28;20430;-63
2022/06/30 11:25:11;;;;;;;8.80;3.67;;;27.30;99.90;;;;;;5011471;28;20748;-63
2022/06/30 11:27:38;;;;;;;5.60;3.10;;;27.20;99.90;;;;;;4997702;28;20091;-63
2022/06/30 11:30:11;;;;;;;5.30;2.97;;;27.20;99.90;;;;;;5006854;28;20046;-63
2022/06/30 11:32:38;;;;;;;7.07;4.00;;;27.40;99.90;;;;;;5012736;28;20041;-63
2022/06/30 11:35:04;;;;;;;14.13;5.95;;;27.20;99.90;;;;;;5012191;28;20037;-63
2022/06/30 11:37:33;;;;;;;11.18;5.28;;;27.10;99.90;;;;;;5009434;28;20033;-63
2022/06/30 11:40:06;;;;;;;8.63;5.30;;;27.50;99.90;;;;;;5019406;28;20044;-63
2022/06/30 11:42:32;;;;;;;9.27;7.25;;;28.10;99.90;;;;;;5012494;28;20393;-63
2022/06/30 11:44:58;;;;;;;11.27;8.82;;;27.30;99.90;;;;;;5011172;28;20439;-63
2022/06/30 11:47:28;;;;;;;12.35;8.25;;;27.20;99.90;;;;;;5010767;28;20048;-63
2022/06/30 11:49:58;;;;;;;14.43;12.02;;;27.30;99.90;;;;;;5008746;28;20116;-63
2022/06/30 11:52:37;;;;;;;13.45;11.07;;;27.40;99.90;;;;;;5010032;28;20030;-63
2022/06/30 11:55:04;;;;;;;16.98;13.13;;;27.20;99.90;;;;;;5010519;28;20553;-63
2022/06/30 11:57:40;;;;;;;13.35;10.43;;;27.30;99.90;;;;;;4992569;28;20038;-63
2022/06/30 12:00:15;;;;;;;10.77;8.88;;;27.40;99.90;;;;;;5013033;28;20049;-63
2022/06/30 12:02:43;;;;;;;11.15;8.63;;;27.30;99.90;;;;;;4993424;28;20107;-63
2022/06/30 12:05:13;;;;;;;10.88;8.10;;;27.70;99.90;;;;;;4993812;28;20045;-63
2022/06/30 12:07:39;;;;;;;10.05;5.85;;;28.90;99.90;;;;;;5013314;28;20049;-63
2022/06/30 12:10:07;;;;;;;10.93;5.68;;;27.30;99.90;;;;;;5009674;28;20049;-63
2022/06/30 12:12:35;;;;;;;15.73;6.10;;;27.50;99.90;;;;;;5012103;28;20041;-63
2022/06/30 12:15:07;;;;;;;8.07;5.25;;;27.30;99.90;;;;;;5007780;28;20049;-63
2022/06/30 12:17:35;;;;;;;14.55;7.18;;;27.30;99.90;;;;;;5011710;28;20131;-63
2022/06/30 12:20:03;;;;;;;10.50;7.28;;;28.80;99.90;;;;;;4998053;28;20534;-63
2022/06/30 12:22:29;;;;;;;10.38;7.30;;;27.70;99.90;;;;;;5016968;28;20038;-63
2022/06/30 12:24:55;;;;;;;12.38;9.00;;;27.40;99.90;;;;;;4999026;28;20038;-63
2022/06/30 12:27:27;;;;;;;13.00;8.68;;;27.40;99.90;;;;;;5016906;28;20046;-63
2022/06/30 12:29:57;;;;;;;13.00;6.85;;;27.20;99.90;;;;;;5007776;28;20103;-63
2022/06/30 12:32:23;;;;;;;9.32;6.13;;;27.20;99.90;;;;;;5007546;28;20056;-63
2022/06/30 12:34:54;;;;;;;12.75;8.48;;;27.30;99.90;;;;;;5014331;28;20030;-63
2022/06/30 12:37:31;;;;;;;9.65;8.05;;;27.10;99.90;;;;;;5023973;28;20041;-63
2022/06/30 12:39:58;;;;;;;9.68;7.95;;;27.30;99.90;;;;;;5014321;28;20404;-63
2022/06/30 12:42:24;;;;;;;12.02;6.60;;;27.30;99.90;;;;;;5013955;28;20104;-63
2022/06/30 12:44:50;;;;;;;9.00;6.88;;;27.20;99.90;;;;;;4996078;28;20077;-63
2022/06/30 12:47:16;;;;;;;15.50;8.25;;;27.20;99.90;;;;;;4994876;28;20119;-63
2022/06/30 12:49:41;;;;;;;7.57;5.95;;;27.10;99.90;;;;;;5014148;28;20109;-63
2022/06/30 12:52:19;;;;;;;10.38;6.43;;;27.00;99.90;;;;;;5012681;28;20507;-63
2022/06/30 12:54:59;;;;;;;11.40;6.15;;;27.20;99.90;;;;;;5029045;28;20051;-63